sensor_id;sensor_type;location;lat;lon;timestamp;P1;durP1;ratioP1;P2;durP2;ratioP2
59854;SDS011;45732;52.850;6.896;2022-07-12T00:01:31;2.50;;;1.90;;
59854;SDS011;45732;52.850;6.896;2022-07-12T00:03:56;2.38;;;1.70;;
59854;SDS011;45732;52.850;6.896;2022-07-12T00:06:22;2.60;;;1.77;;
59854;SDS011;45732;52.850;6.896;2022-07-12T00:08:48;2.70;;;1.70;;
59854;SDS011;45732;52.850;6.896;2022-07-12T00:11:13;3.03;;;1.95;;
59854;SDS011;45732;52.850;6.896;2022-07-12T00:13:39;3.35;;;2.10;;
59854;SDS011;45732;52.850;6.896;2022-07-12T00:16:05;3.33;;;2.03;;
59854;SDS011;45732;52.850;6.896;2022-07-12T00:18:31;4.10;;;2.22;;
59854;SDS011;45732;52.850;6.896;2022-07-12T00:20:57;3.08;;;1.80;;
59854;SDS011;45732;52.850;6.896;2022-07-12T00:23:23;2.83;;;2.15;;
59854;SDS011;45732;52.850;6.896;2022-07-12T00:25:48;4.18;;;2.30;;
59854;SDS011;45732;52.850;6.896;2022-07-12T00:28:14;2.55;;;1.92;;
59854;SDS011;45732;52.850;6.896;2022-07-12T00:30:40;3.58;;;2.00;;
59854;SDS011;45732;52.850;6.896;2022-07-12T00:33:06;2.25;;;1.70;;
59854;SDS011;45732;52.850;6.896;2022-07-12T00:35:32;2.55;;;1.80;;
59854;SDS011;45732;52.850;6.896;2022-07-12T00:37:57;2.88;;;1.50;;
59854;SDS011;45732;52.850;6.896;2022-07-12T00:40:23;1.60;;;1.17;;
59854;SDS011;45732;52.850;6.896;2022-07-12T00:42:49;2.75;;;1.30;;
59854;SDS011;45732;52.850;6.896;2022-07-12T00:45:14;1.63;;;1.35;;
59854;SDS011;45732;52.850;6.896;2022-07-12T00:47:42;1.20;;;0.93;;
59854;SDS011;45732;52.850;6.896;2022-07-12T00:50:19;1.15;;;1.02;;
59854;SDS011;45732;52.850;6.896;2022-07-12T00:52:53;2.05;;;1.20;;
59854;SDS011;45732;52.850;6.896;2022-07-12T00:55:20;1.60;;;1.10;;
59854;SDS011;45732;52.850;6.896;2022-07-12T00:57:48;2.63;;;1.30;;
59854;SDS011;45732;52.850;6.896;2022-07-12T01:00:15;1.35;;;1.08;;
59854;SDS011;45732;52.850;6.896;2022-07-12T01:02:45;1.20;;;1.10;;
59854;SDS011;45732;52.850;6.896;2022-07-12T01:05:12;2.13;;;1.40;;
59854;SDS011;45732;52.850;6.896;2022-07-12T01:07:38;3.10;;;1.67;;
59854;SDS011;45732;52.850;6.896;2022-07-12T01:10:05;1.98;;;1.52;;
59854;SDS011;45732;52.850;6.896;2022-07-12T01:12:32;2.05;;;1.40;;
59854;SDS011;45732;52.850;6.896;2022-07-12T01:14:59;2.00;;;1.30;;
59854;SDS011;45732;52.850;6.896;2022-07-12T01:17:26;2.63;;;1.33;;
59854;SDS011;45732;52.850;6.896;2022-07-12T01:19:53;1.52;;;1.33;;
59854;SDS011;45732;52.850;6.896;2022-07-12T01:22:30;1.58;;;1.45;;
59854;SDS011;45732;52.850;6.896;2022-07-12T01:24:57;1.73;;;1.25;;
59854;SDS011;45732;52.850;6.896;2022-07-12T01:27:24;1.85;;;1.23;;
59854;SDS011;45732;52.850;6.896;2022-07-12T01:29:50;3.28;;;1.40;;
59854;SDS011;45732;52.850;6.896;2022-07-12T01:32:15;2.05;;;1.50;;
59854;SDS011;45732;52.850;6.896;2022-07-12T01:37:22;2.20;;;1.60;;
59854;SDS011;45732;52.850;6.896;2022-07-12T01:39:53;3.53;;;1.58;;
59854;SDS011;45732;52.850;6.896;2022-07-12T01:42:20;1.90;;;1.40;;
59854;SDS011;45732;52.850;6.896;2022-07-12T01:44:51;3.22;;;1.70;;
59854;SDS011;45732;52.850;6.896;2022-07-12T01:47:18;2.10;;;1.65;;
59854;SDS011;45732;52.850;6.896;2022-07-12T01:49:45;2.92;;;1.40;;
59854;SDS011;45732;52.850;6.896;2022-07-12T01:52:11;2.03;;;1.30;;
59854;SDS011;45732;52.850;6.896;2022-07-12T01:54:38;2.35;;;1.45;;
59854;SDS011;45732;52.850;6.896;2022-07-12T01:57:04;1.73;;;1.25;;
59854;SDS011;45732;52.850;6.896;2022-07-12T01:59:33;2.85;;;1.58;;
59854;SDS011;45732;52.850;6.896;2022-07-12T02:01:59;1.92;;;1.50;;
59854;SDS011;45732;52.850;6.896;2022-07-12T02:04:26;2.78;;;1.92;;
59854;SDS011;45732;52.850;6.896;2022-07-12T02:06:52;2.53;;;1.88;;
59854;SDS011;45732;52.850;6.896;2022-07-12T02:09:18;2.88;;;1.80;;
59854;SDS011;45732;52.850;6.896;2022-07-12T02:11:44;3.50;;;1.60;;
59854;SDS011;45732;52.850;6.896;2022-07-12T02:14:11;3.97;;;1.30;;
59854;SDS011;45732;52.850;6.896;2022-07-12T02:16:40;1.95;;;1.10;;
59854;SDS011;45732;52.850;6.896;2022-07-12T02:19:06;1.35;;;0.88;;
59854;SDS011;45732;52.850;6.896;2022-07-12T02:21:32;1.10;;;1.00;;
59854;SDS011;45732;52.850;6.896;2022-07-12T02:23:58;1.00;;;0.88;;
59854;SDS011;45732;52.850;6.896;2022-07-12T02:26:25;1.10;;;0.90;;
59854;SDS011;45732;52.850;6.896;2022-07-12T02:28:51;1.70;;;1.20;;
59854;SDS011;45732;52.850;6.896;2022-07-12T02:31:16;2.35;;;1.40;;
59854;SDS011;45732;52.850;6.896;2022-07-12T02:33:42;1.55;;;1.30;;
59854;SDS011;45732;52.850;6.896;2022-07-12T02:36:08;1.90;;;1.38;;
59854;SDS011;45732;52.850;6.896;2022-07-12T02:38:34;3.33;;;1.30;;
59854;SDS011;45732;52.850;6.896;2022-07-12T02:41:00;1.92;;;1.25;;
59854;SDS011;45732;52.850;6.896;2022-07-12T02:43:29;3.50;;;1.60;;
59854;SDS011;45732;52.850;6.896;2022-07-12T02:46:02;3.40;;;1.88;;
59854;SDS011;45732;52.850;6.896;2022-07-12T02:48:29;4.47;;;1.92;;
59854;SDS011;45732;52.850;6.896;2022-07-12T02:50:55;2.88;;;1.60;;
59854;SDS011;45732;52.850;6.896;2022-07-12T02:53:20;1.50;;;1.20;;
59854;SDS011;45732;52.850;6.896;2022-07-12T02:55:47;1.70;;;1.30;;
59854;SDS011;45732;52.850;6.896;2022-07-12T02:58:14;2.33;;;1.15;;
59854;SDS011;45732;52.850;6.896;2022-07-12T03:00:39;2.10;;;1.30;;
59854;SDS011;45732;52.850;6.896;2022-07-12T03:03:06;2.65;;;1.20;;
59854;SDS011;45732;52.850;6.896;2022-07-12T03:05:36;2.65;;;1.20;;
59854;SDS011;45732;52.850;6.896;2022-07-12T03:08:03;2.25;;;0.85;;
59854;SDS011;45732;52.850;6.896;2022-07-12T03:10:29;1.48;;;1.00;;
59854;SDS011;45732;52.850;6.896;2022-07-12T03:12:54;2.78;;;1.40;;
59854;SDS011;45732;52.850;6.896;2022-07-12T03:15:20;3.17;;;1.60;;
59854;SDS011;45732;52.850;6.896;2022-07-12T03:17:46;1.88;;;1.38;;
59854;SDS011;45732;52.850;6.896;2022-07-12T03:20:12;2.20;;;1.30;;
59854;SDS011;45732;52.850;6.896;2022-07-12T03:22:42;2.45;;;1.08;;
59854;SDS011;45732;52.850;6.896;2022-07-12T03:25:09;1.35;;;1.08;;
59854;SDS011;45732;52.850;6.896;2022-07-12T03:27:35;1.90;;;0.70;;
59854;SDS011;45732;52.850;6.896;2022-07-12T03:30:01;2.13;;;0.90;;
59854;SDS011;45732;52.850;6.896;2022-07-12T03:32:27;2.05;;;0.93;;
59854;SDS011;45732;52.850;6.896;2022-07-12T03:34:53;2.05;;;0.90;;
59854;SDS011;45732;52.850;6.896;2022-07-12T03:37:18;1.00;;;0.77;;
59854;SDS011;45732;52.850;6.896;2022-07-12T03:39:44;3.90;;;1.13;;
59854;SDS011;45732;52.850;6.896;2022-07-12T03:42:10;2.45;;;1.17;;
59854;SDS011;45732;52.850;6.896;2022-07-12T03:44:39;1.55;;;1.30;;
59854;SDS011;45732;52.850;6.896;2022-07-12T03:47:04;2.47;;;1.30;;
59854;SDS011;45732;52.850;6.896;2022-07-12T03:49:30;2.30;;;1.38;;
59854;SDS011;45732;52.850;6.896;2022-07-12T03:51:56;3.60;;;1.00;;
59854;SDS011;45732;52.850;6.896;2022-07-12T03:54:22;2.72;;;1.50;;
59854;SDS011;45732;52.850;6.896;2022-07-12T03:56:47;2.00;;;1.13;;
59854;SDS011;45732;52.850;6.896;2022-07-12T03:59:32;2.08;;;1.23;;
59854;SDS011;45732;52.850;6.896;2022-07-12T04:01:57;3.78;;;1.33;;
59854;SDS011;45732;52.850;6.896;2022-07-12T04:04:23;2.83;;;1.38;;
59854;SDS011;45732;52.850;6.896;2022-07-12T04:06:49;4.28;;;1.30;;
59854;SDS011;45732;52.850;6.896;2022-07-12T04:09:15;3.40;;;1.40;;
59854;SDS011;45732;52.850;6.896;2022-07-12T04:11:40;3.42;;;1.30;;
59854;SDS011;45732;52.850;6.896;2022-07-12T04:14:06;4.25;;;2.00;;
59854;SDS011;45732;52.850;6.896;2022-07-12T04:16:32;3.15;;;1.85;;
59854;SDS011;45732;52.850;6.896;2022-07-12T04:18:58;3.45;;;1.65;;
59854;SDS011;45732;52.850;6.896;2022-07-12T04:21:24;3.58;;;1.67;;
59854;SDS011;45732;52.850;6.896;2022-07-12T04:23:50;3.90;;;1.80;;
59854;SDS011;45732;52.850;6.896;2022-07-12T04:26:15;3.25;;;1.92;;
59854;SDS011;45732;52.850;6.896;2022-07-12T04:28:41;4.97;;;1.98;;
59854;SDS011;45732;52.850;6.896;2022-07-12T04:31:07;4.00;;;1.88;;
59854;SDS011;45732;52.850;6.896;2022-07-12T04:33:33;2.70;;;1.70;;
59854;SDS011;45732;52.850;6.896;2022-07-12T04:35:59;2.78;;;1.80;;
59854;SDS011;45732;52.850;6.896;2022-07-12T04:38:24;3.55;;;2.38;;
59854;SDS011;45732;52.850;6.896;2022-07-12T04:40:50;2.42;;;1.80;;
59854;SDS011;45732;52.850;6.896;2022-07-12T04:43:16;2.65;;;1.90;;
59854;SDS011;45732;52.850;6.896;2022-07-12T04:45:42;3.13;;;2.00;;
59854;SDS011;45732;52.850;6.896;2022-07-12T04:48:09;4.05;;;2.20;;
59854;SDS011;45732;52.850;6.896;2022-07-12T04:50:38;3.35;;;1.90;;
59854;SDS011;45732;52.850;6.896;2022-07-12T04:53:04;3.30;;;2.15;;
59854;SDS011;45732;52.850;6.896;2022-07-12T04:55:29;3.47;;;2.35;;
59854;SDS011;45732;52.850;6.896;2022-07-12T04:57:55;2.63;;;1.88;;
59854;SDS011;45732;52.850;6.896;2022-07-12T05:00:21;3.83;;;2.10;;
59854;SDS011;45732;52.850;6.896;2022-07-12T05:02:47;3.28;;;2.30;;
59854;SDS011;45732;52.850;6.896;2022-07-12T05:05:13;3.17;;;2.28;;
59854;SDS011;45732;52.850;6.896;2022-07-12T05:07:42;4.85;;;2.90;;
59854;SDS011;45732;52.850;6.896;2022-07-12T05:10:08;5.10;;;3.58;;
59854;SDS011;45732;52.850;6.896;2022-07-12T05:12:34;5.38;;;3.75;;
59854;SDS011;45732;52.850;6.896;2022-07-12T05:15:00;7.60;;;4.97;;
59854;SDS011;45732;52.850;6.896;2022-07-12T05:17:27;6.97;;;5.00;;
59854;SDS011;45732;52.850;6.896;2022-07-12T05:19:52;7.45;;;4.75;;
59854;SDS011;45732;52.850;6.896;2022-07-12T05:22:18;7.35;;;5.93;;
59854;SDS011;45732;52.850;6.896;2022-07-12T05:24:44;7.85;;;6.20;;
59854;SDS011;45732;52.850;6.896;2022-07-12T05:27:09;7.93;;;6.10;;
59854;SDS011;45732;52.850;6.896;2022-07-12T05:29:35;7.70;;;5.65;;
59854;SDS011;45732;52.850;6.896;2022-07-12T05:32:01;7.13;;;5.20;;
59854;SDS011;45732;52.850;6.896;2022-07-12T05:34:27;7.45;;;5.57;;
59854;SDS011;45732;52.850;6.896;2022-07-12T05:36:53;6.90;;;5.20;;
59854;SDS011;45732;52.850;6.896;2022-07-12T05:39:19;7.10;;;5.43;;
59854;SDS011;45732;52.850;6.896;2022-07-12T05:41:44;7.10;;;5.10;;
59854;SDS011;45732;52.850;6.896;2022-07-12T05:44:14;7.65;;;5.57;;
59854;SDS011;45732;52.850;6.896;2022-07-12T05:46:44;8.57;;;5.50;;
59854;SDS011;45732;52.850;6.896;2022-07-12T05:49:13;7.60;;;4.93;;
59854;SDS011;45732;52.850;6.896;2022-07-12T05:51:38;7.50;;;5.22;;
59854;SDS011;45732;52.850;6.896;2022-07-12T05:54:23;6.88;;;5.10;;
59854;SDS011;45732;52.850;6.896;2022-07-12T05:56:48;8.25;;;5.25;;
59854;SDS011;45732;52.850;6.896;2022-07-12T05:59:16;7.97;;;5.57;;
59854;SDS011;45732;52.850;6.896;2022-07-12T06:01:44;8.95;;;5.82;;
59854;SDS011;45732;52.850;6.896;2022-07-12T06:04:10;7.18;;;5.40;;
59854;SDS011;45732;52.850;6.896;2022-07-12T06:06:36;8.07;;;6.07;;
59854;SDS011;45732;52.850;6.896;2022-07-12T06:09:02;9.25;;;7.20;;
59854;SDS011;45732;52.850;6.896;2022-07-12T06:11:29;10.50;;;6.80;;
59854;SDS011;45732;52.850;6.896;2022-07-12T06:13:54;9.75;;;7.25;;
59854;SDS011;45732;52.850;6.896;2022-07-12T06:16:20;8.68;;;7.28;;
59854;SDS011;45732;52.850;6.896;2022-07-12T06:18:46;8.93;;;7.45;;
59854;SDS011;45732;52.850;6.896;2022-07-12T06:21:11;9.73;;;8.05;;
59854;SDS011;45732;52.850;6.896;2022-07-12T06:23:37;8.18;;;6.75;;
59854;SDS011;45732;52.850;6.896;2022-07-12T06:26:02;9.50;;;7.70;;
59854;SDS011;45732;52.850;6.896;2022-07-12T06:28:28;10.23;;;8.25;;
59854;SDS011;45732;52.850;6.896;2022-07-12T06:30:54;10.77;;;8.30;;
59854;SDS011;45732;52.850;6.896;2022-07-12T06:33:19;9.75;;;8.63;;
59854;SDS011;45732;52.850;6.896;2022-07-12T06:35:45;10.48;;;8.90;;
59854;SDS011;45732;52.850;6.896;2022-07-12T06:38:11;9.73;;;7.93;;
59854;SDS011;45732;52.850;6.896;2022-07-12T06:40:37;12.88;;;9.15;;
59854;SDS011;45732;52.850;6.896;2022-07-12T06:43:04;12.20;;;8.63;;
59854;SDS011;45732;52.850;6.896;2022-07-12T06:45:34;10.45;;;8.95;;
59854;SDS011;45732;52.850;6.896;2022-07-12T06:48:00;11.77;;;9.18;;
59854;SDS011;45732;52.850;6.896;2022-07-12T06:50:26;10.70;;;9.18;;
59854;SDS011;45732;52.850;6.896;2022-07-12T06:52:51;10.88;;;8.70;;
59854;SDS011;45732;52.850;6.896;2022-07-12T06:55:17;12.82;;;9.75;;
59854;SDS011;45732;52.850;6.896;2022-07-12T06:57:43;11.80;;;8.45;;
59854;SDS011;45732;52.850;6.896;2022-07-12T07:00:08;11.07;;;9.50;;
59854;SDS011;45732;52.850;6.896;2022-07-12T07:02:34;10.80;;;9.02;;
59854;SDS011;45732;52.850;6.896;2022-07-12T07:05:00;11.95;;;9.57;;
59854;SDS011;45732;52.850;6.896;2022-07-12T07:07:26;10.45;;;8.52;;
59854;SDS011;45732;52.850;6.896;2022-07-12T07:09:52;11.35;;;9.60;;
59854;SDS011;45732;52.850;6.896;2022-07-12T07:12:18;11.00;;;8.77;;
59854;SDS011;45732;52.850;6.896;2022-07-12T07:14:43;9.75;;;8.25;;
59854;SDS011;45732;52.850;6.896;2022-07-12T07:17:09;11.57;;;9.18;;
59854;SDS011;45732;52.850;6.896;2022-07-12T07:19:36;11.52;;;8.93;;
59854;SDS011;45732;52.850;6.896;2022-07-12T07:22:02;10.70;;;8.48;;
59854;SDS011;45732;52.850;6.896;2022-07-12T07:24:28;11.15;;;7.80;;
59854;SDS011;45732;52.850;6.896;2022-07-12T07:26:54;11.20;;;8.00;;
59854;SDS011;45732;52.850;6.896;2022-07-12T07:29:19;10.32;;;8.02;;
59854;SDS011;45732;52.850;6.896;2022-07-12T07:32:04;8.73;;;6.43;;
59854;SDS011;45732;52.850;6.896;2022-07-12T07:34:30;10.32;;;7.18;;
59854;SDS011;45732;52.850;6.896;2022-07-12T07:36:55;9.55;;;7.10;;
59854;SDS011;45732;52.850;6.896;2022-07-12T07:39:21;9.43;;;7.38;;
59854;SDS011;45732;52.850;6.896;2022-07-12T07:41:47;9.68;;;6.57;;
59854;SDS011;45732;52.850;6.896;2022-07-12T07:44:13;9.52;;;6.90;;
59854;SDS011;45732;52.850;6.896;2022-07-12T07:46:38;8.75;;;6.57;;
59854;SDS011;45732;52.850;6.896;2022-07-12T07:49:04;7.78;;;6.20;;
59854;SDS011;45732;52.850;6.896;2022-07-12T07:51:30;8.18;;;5.95;;
59854;SDS011;45732;52.850;6.896;2022-07-12T07:53:55;7.05;;;5.15;;
59854;SDS011;45732;52.850;6.896;2022-07-12T07:56:21;6.68;;;5.18;;
59854;SDS011;45732;52.850;6.896;2022-07-12T07:58:47;7.65;;;5.03;;
59854;SDS011;45732;52.850;6.896;2022-07-12T08:01:12;6.78;;;4.45;;
59854;SDS011;45732;52.850;6.896;2022-07-12T08:03:38;6.90;;;4.70;;
59854;SDS011;45732;52.850;6.896;2022-07-12T08:06:04;7.22;;;5.10;;
59854;SDS011;45732;52.850;6.896;2022-07-12T08:08:30;6.82;;;4.80;;
59854;SDS011;45732;52.850;6.896;2022-07-12T08:10:56;7.00;;;5.00;;
59854;SDS011;45732;52.850;6.896;2022-07-12T08:13:21;6.30;;;4.10;;
59854;SDS011;45732;52.850;6.896;2022-07-12T08:15:48;6.07;;;4.35;;
59854;SDS011;45732;52.850;6.896;2022-07-12T08:18:13;6.18;;;4.50;;
59854;SDS011;45732;52.850;6.896;2022-07-12T08:20:39;6.22;;;3.75;;
59854;SDS011;45732;52.850;6.896;2022-07-12T08:23:05;5.57;;;3.92;;
59854;SDS011;45732;52.850;6.896;2022-07-12T08:25:31;5.65;;;3.80;;
59854;SDS011;45732;52.850;6.896;2022-07-12T08:27:57;6.00;;;4.20;;
59854;SDS011;45732;52.850;6.896;2022-07-12T08:30:23;6.25;;;4.35;;
59854;SDS011;45732;52.850;6.896;2022-07-12T08:32:48;5.30;;;3.65;;
59854;SDS011;45732;52.850;6.896;2022-07-12T08:35:14;7.50;;;4.55;;
59854;SDS011;45732;52.850;6.896;2022-07-12T08:37:43;6.95;;;3.85;;
59854;SDS011;45732;52.850;6.896;2022-07-12T08:40:09;5.72;;;3.38;;
59854;SDS011;45732;52.850;6.896;2022-07-12T08:42:35;5.50;;;4.10;;
59854;SDS011;45732;52.850;6.896;2022-07-12T08:45:05;6.22;;;3.58;;
59854;SDS011;45732;52.850;6.896;2022-07-12T08:47:31;5.57;;;4.05;;
59854;SDS011;45732;52.850;6.896;2022-07-12T08:50:13;8.82;;;3.67;;
59854;SDS011;45732;52.850;6.896;2022-07-12T08:52:40;4.43;;;3.05;;
59854;SDS011;45732;52.850;6.896;2022-07-12T08:57:53;5.13;;;3.30;;
59854;SDS011;45732;52.850;6.896;2022-07-12T09:00:20;5.63;;;3.75;;
59854;SDS011;45732;52.850;6.896;2022-07-12T09:02:47;6.10;;;3.90;;
59854;SDS011;45732;52.850;6.896;2022-07-12T09:05:15;6.45;;;3.80;;
59854;SDS011;45732;52.850;6.896;2022-07-12T09:07:44;6.20;;;4.43;;
59854;SDS011;45732;52.850;6.896;2022-07-12T09:10:11;7.50;;;4.90;;
59854;SDS011;45732;52.850;6.896;2022-07-12T09:12:38;6.30;;;4.78;;
59854;SDS011;45732;52.850;6.896;2022-07-12T09:15:15;7.57;;;4.60;;
59854;SDS011;45732;52.850;6.896;2022-07-12T09:18:00;5.45;;;3.20;;
59854;SDS011;45732;52.850;6.896;2022-07-12T09:20:29;6.40;;;3.97;;
59854;SDS011;45732;52.850;6.896;2022-07-12T09:23:03;6.88;;;3.83;;
59854;SDS011;45732;52.850;6.896;2022-07-12T09:25:31;5.18;;;3.33;;
59854;SDS011;45732;52.850;6.896;2022-07-12T09:27:59;5.97;;;3.85;;
59854;SDS011;45732;52.850;6.896;2022-07-12T09:30:28;6.07;;;4.25;;
59854;SDS011;45732;52.850;6.896;2022-07-12T09:32:58;6.28;;;4.10;;
59854;SDS011;45732;52.850;6.896;2022-07-12T09:35:43;7.47;;;4.75;;
59854;SDS011;45732;52.850;6.896;2022-07-12T09:38:51;6.35;;;4.30;;
59854;SDS011;45732;52.850;6.896;2022-07-12T09:41:26;5.00;;;4.07;;
59854;SDS011;45732;52.850;6.896;2022-07-12T09:43:53;6.47;;;3.38;;
59854;SDS011;45732;52.850;6.896;2022-07-12T09:46:19;5.10;;;3.15;;
59854;SDS011;45732;52.850;6.896;2022-07-12T09:48:45;4.03;;;2.50;;
59854;SDS011;45732;52.850;6.896;2022-07-12T09:51:16;5.18;;;3.25;;
59854;SDS011;45732;52.850;6.896;2022-07-12T09:53:49;4.45;;;2.85;;
59854;SDS011;45732;52.850;6.896;2022-07-12T09:56:18;4.90;;;2.42;;
59854;SDS011;45732;52.850;6.896;2022-07-12T09:58:56;2.33;;;1.80;;
59854;SDS011;45732;52.850;6.896;2022-07-12T10:01:23;2.42;;;1.75;;
59854;SDS011;45732;52.850;6.896;2022-07-12T10:03:50;5.40;;;2.50;;
59854;SDS011;45732;52.850;6.896;2022-07-12T10:06:26;5.25;;;3.10;;
59854;SDS011;45732;52.850;6.896;2022-07-12T10:08:54;4.60;;;3.00;;
59854;SDS011;45732;52.850;6.896;2022-07-12T10:11:20;4.00;;;2.90;;
59854;SDS011;45732;52.850;6.896;2022-07-12T10:13:48;5.20;;;3.17;;
59854;SDS011;45732;52.850;6.896;2022-07-12T10:16:15;3.75;;;2.17;;
59854;SDS011;45732;52.850;6.896;2022-07-12T10:19:00;5.40;;;1.80;;
59854;SDS011;45732;52.850;6.896;2022-07-12T10:21:46;4.22;;;2.80;;
59854;SDS011;45732;52.850;6.896;2022-07-12T10:27:34;8.60;;;3.28;;
59854;SDS011;45732;52.850;6.896;2022-07-12T10:29:55;3.40;;;2.30;;
59854;SDS011;45732;52.850;6.896;2022-07-12T10:32:39;2.42;;;1.90;;
59854;SDS011;45732;52.850;6.896;2022-07-12T10:35:11;3.85;;;1.92;;
59854;SDS011;45732;52.850;6.896;2022-07-12T10:37:39;3.00;;;2.00;;
59854;SDS011;45732;52.850;6.896;2022-07-12T10:40:14;2.35;;;1.60;;
59854;SDS011;45732;52.850;6.896;2022-07-12T10:45:32;2.80;;;1.55;;
59854;SDS011;45732;52.850;6.896;2022-07-12T10:58:36;3.17;;;0.70;;
59854;SDS011;45732;52.850;6.896;2022-07-12T11:01:07;3.83;;;0.80;;
59854;SDS011;45732;52.850;6.896;2022-07-12T11:03:38;2.17;;;1.20;;
59854;SDS011;45732;52.850;6.896;2022-07-12T11:06:05;2.25;;;1.15;;
59854;SDS011;45732;52.850;6.896;2022-07-12T11:08:55;1.80;;;0.80;;
59854;SDS011;45732;52.850;6.896;2022-07-12T11:11:22;2.17;;;0.90;;
59854;SDS011;45732;52.850;6.896;2022-07-12T11:13:50;2.17;;;1.17;;
59854;SDS011;45732;52.850;6.896;2022-07-12T11:16:16;1.20;;;1.10;;
59854;SDS011;45732;52.850;6.896;2022-07-12T11:18:42;1.67;;;0.90;;
59854;SDS011;45732;52.850;6.896;2022-07-12T11:21:09;2.60;;;1.13;;
59854;SDS011;45732;52.850;6.896;2022-07-12T11:23:35;1.63;;;1.10;;
59854;SDS011;45732;52.850;6.896;2022-07-12T11:26:03;1.10;;;0.90;;
59854;SDS011;45732;52.850;6.896;2022-07-12T11:28:29;2.30;;;1.40;;
59854;SDS011;45732;52.850;6.896;2022-07-12T11:31:06;5.28;;;0.98;;
59854;SDS011;45732;52.850;6.896;2022-07-12T11:33:34;1.42;;;1.00;;
59854;SDS011;45732;52.850;6.896;2022-07-12T11:36:05;1.27;;;1.05;;
59854;SDS011;45732;52.850;6.896;2022-07-12T11:38:33;2.08;;;1.05;;
59854;SDS011;45732;52.850;6.896;2022-07-12T11:41:03;1.55;;;0.80;;
59854;SDS011;45732;52.850;6.896;2022-07-12T11:43:30;1.52;;;0.90;;
59854;SDS011;45732;52.850;6.896;2022-07-12T11:45:58;2.30;;;0.85;;
59854;SDS011;45732;52.850;6.896;2022-07-12T11:48:24;1.85;;;0.82;;
59854;SDS011;45732;52.850;6.896;2022-07-12T11:50:51;2.67;;;0.82;;
59854;SDS011;45732;52.850;6.896;2022-07-12T11:53:24;1.30;;;0.90;;
59854;SDS011;45732;52.850;6.896;2022-07-12T11:55:52;1.20;;;0.70;;
59854;SDS011;45732;52.850;6.896;2022-07-12T11:58:23;1.92;;;0.90;;
59854;SDS011;45732;52.850;6.896;2022-07-12T12:00:51;3.90;;;1.10;;
59854;SDS011;45732;52.850;6.896;2022-07-12T12:03:18;3.88;;;1.20;;
59854;SDS011;45732;52.850;6.896;2022-07-12T12:05:48;5.55;;;1.10;;
59854;SDS011;45732;52.850;6.896;2022-07-12T12:08:15;1.75;;;0.90;;
59854;SDS011;45732;52.850;6.896;2022-07-12T12:10:42;2.95;;;0.90;;
59854;SDS011;45732;52.850;6.896;2022-07-12T12:13:17;1.35;;;0.95;;
59854;SDS011;45732;52.850;6.896;2022-07-12T12:15:56;2.58;;;0.80;;
59854;SDS011;45732;52.850;6.896;2022-07-12T12:18:33;0.80;;;0.80;;
59854;SDS011;45732;52.850;6.896;2022-07-12T12:21:08;1.35;;;1.00;;
59854;SDS011;45732;52.850;6.896;2022-07-12T12:23:35;2.00;;;1.15;;
59854;SDS011;45732;52.850;6.896;2022-07-12T12:28:44;2.78;;;1.10;;
59854;SDS011;45732;52.850;6.896;2022-07-12T12:31:15;2.85;;;1.00;;
59854;SDS011;45732;52.850;6.896;2022-07-12T12:33:44;1.98;;;0.85;;
59854;SDS011;45732;52.850;6.896;2022-07-12T12:41:24;3.08;;;0.90;;
59854;SDS011;45732;52.850;6.896;2022-07-12T12:49:50;1.98;;;0.90;;
59854;SDS011;45732;52.850;6.896;2022-07-12T12:52:17;3.40;;;1.17;;
59854;SDS011;45732;52.850;6.896;2022-07-12T12:54:44;1.98;;;0.95;;
59854;SDS011;45732;52.850;6.896;2022-07-12T12:57:11;1.27;;;0.80;;
59854;SDS011;45732;52.850;6.896;2022-07-12T12:59:37;1.45;;;0.82;;
59854;SDS011;45732;52.850;6.896;2022-07-12T13:02:04;2.92;;;0.80;;
59854;SDS011;45732;52.850;6.896;2022-07-12T13:04:32;1.13;;;0.80;;
59854;SDS011;45732;52.850;6.896;2022-07-12T13:06:59;2.55;;;0.90;;
59854;SDS011;45732;52.850;6.896;2022-07-12T13:09:25;1.27;;;0.70;;
59854;SDS011;45732;52.850;6.896;2022-07-12T13:11:51;2.25;;;0.80;;
59854;SDS011;45732;52.850;6.896;2022-07-12T13:14:17;0.70;;;0.60;;
59854;SDS011;45732;52.850;6.896;2022-07-12T13:16:43;1.67;;;0.60;;
59854;SDS011;45732;52.850;6.896;2022-07-12T13:19:08;0.93;;;0.60;;
59854;SDS011;45732;52.850;6.896;2022-07-12T13:21:34;3.13;;;0.75;;
59854;SDS011;45732;52.850;6.896;2022-07-12T13:24:00;1.83;;;0.70;;
59854;SDS011;45732;52.850;6.896;2022-07-12T13:26:26;1.17;;;0.70;;
59854;SDS011;45732;52.850;6.896;2022-07-12T13:28:55;3.92;;;0.98;;
59854;SDS011;45732;52.850;6.896;2022-07-12T13:31:21;2.75;;;0.70;;
59854;SDS011;45732;52.850;6.896;2022-07-12T13:33:47;2.30;;;0.60;;
59854;SDS011;45732;52.850;6.896;2022-07-12T13:36:14;0.85;;;0.63;;
59854;SDS011;45732;52.850;6.896;2022-07-12T13:38:40;1.25;;;0.70;;
59854;SDS011;45732;52.850;6.896;2022-07-12T13:41:06;1.85;;;0.68;;
59854;SDS011;45732;52.850;6.896;2022-07-12T13:43:32;5.30;;;0.60;;
59854;SDS011;45732;52.850;6.896;2022-07-12T13:45:57;0.73;;;0.50;;
59854;SDS011;45732;52.850;6.896;2022-07-12T13:48:23;1.55;;;0.60;;
59854;SDS011;45732;52.850;6.896;2022-07-12T13:50:49;0.43;;;0.43;;
59854;SDS011;45732;52.850;6.896;2022-07-12T13:53:15;0.50;;;0.50;;
59854;SDS011;45732;52.850;6.896;2022-07-12T13:55:42;1.30;;;0.43;;
59854;SDS011;45732;52.850;6.896;2022-07-12T13:58:08;0.68;;;0.45;;
59854;SDS011;45732;52.850;6.896;2022-07-12T14:00:35;3.13;;;0.60;;
59854;SDS011;45732;52.850;6.896;2022-07-12T14:03:00;1.38;;;0.60;;
59854;SDS011;45732;52.850;6.896;2022-07-12T14:05:26;2.90;;;0.60;;
59854;SDS011;45732;52.850;6.896;2022-07-12T14:07:52;3.17;;;0.77;;
59854;SDS011;45732;52.850;6.896;2022-07-12T14:10:33;0.90;;;0.70;;
59854;SDS011;45732;52.850;6.896;2022-07-12T14:13:01;0.75;;;0.60;;
59854;SDS011;45732;52.850;6.896;2022-07-12T14:15:27;4.38;;;1.45;;
59854;SDS011;45732;52.850;6.896;2022-07-12T14:18:02;2.90;;;0.75;;
59854;SDS011;45732;52.850;6.896;2022-07-12T14:20:30;1.85;;;0.70;;
59854;SDS011;45732;52.850;6.896;2022-07-12T14:23:22;1.60;;;0.80;;
59854;SDS011;45732;52.850;6.896;2022-07-12T14:25:47;3.55;;;0.98;;
59854;SDS011;45732;52.850;6.896;2022-07-12T14:28:13;2.60;;;0.82;;
59854;SDS011;45732;52.850;6.896;2022-07-12T14:30:39;1.17;;;0.70;;
59854;SDS011;45732;52.850;6.896;2022-07-12T14:33:04;3.88;;;0.82;;
59854;SDS011;45732;52.850;6.896;2022-07-12T14:35:30;2.17;;;0.70;;
59854;SDS011;45732;52.850;6.896;2022-07-12T14:37:56;2.60;;;0.63;;
59854;SDS011;45732;52.850;6.896;2022-07-12T14:40:21;4.78;;;0.73;;
59854;SDS011;45732;52.850;6.896;2022-07-12T14:42:47;1.55;;;0.70;;
59854;SDS011;45732;52.850;6.896;2022-07-12T14:45:13;1.23;;;0.65;;
59854;SDS011;45732;52.850;6.896;2022-07-12T14:47:40;0.68;;;0.60;;
59854;SDS011;45732;52.850;6.896;2022-07-12T14:50:06;3.50;;;0.70;;
59854;SDS011;45732;52.850;6.896;2022-07-12T14:52:32;2.42;;;0.65;;
59854;SDS011;45732;52.850;6.896;2022-07-12T14:54:58;1.80;;;0.60;;
59854;SDS011;45732;52.850;6.896;2022-07-12T14:57:24;1.40;;;0.60;;
59854;SDS011;45732;52.850;6.896;2022-07-12T14:59:49;0.50;;;0.50;;
59854;SDS011;45732;52.850;6.896;2022-07-12T15:02:15;1.92;;;0.60;;
59854;SDS011;45732;52.850;6.896;2022-07-12T15:04:42;1.67;;;0.60;;
59854;SDS011;45732;52.850;6.896;2022-07-12T15:07:08;1.38;;;0.70;;
59854;SDS011;45732;52.850;6.896;2022-07-12T15:09:33;2.30;;;0.60;;
59854;SDS011;45732;52.850;6.896;2022-07-12T15:12:00;3.05;;;0.70;;
59854;SDS011;45732;52.850;6.896;2022-07-12T15:14:26;1.60;;;1.20;;
59854;SDS011;45732;52.850;6.896;2022-07-12T15:16:52;2.33;;;1.42;;
59854;SDS011;45732;52.850;6.896;2022-07-12T15:19:18;3.80;;;0.80;;
59854;SDS011;45732;52.850;6.896;2022-07-12T15:21:43;2.08;;;0.63;;
59854;SDS011;45732;52.850;6.896;2022-07-12T15:24:09;1.52;;;0.70;;
59854;SDS011;45732;52.850;6.896;2022-07-12T15:26:35;0.85;;;0.60;;